Time;durP1;ratioP1;P1;durP2;ratioP2;P2;SDS_P1;SDS_P2;PMS_P1;PMS_P2;Temp;Humidity;BMP_temperature;BMP_pressure;BME280_temperature;BME280_humidity;BME280_pressure;Samples;Min_cycle;Max_cycle;Signal;HPM_P1;HPM_P2
2022/01/17 00:01:35;;;;;;;19.58;3.13;;;4.80;99.90;;;;;;5061574;28;20481;-52
2022/01/17 00:04:01;;;;;;;19.77;3.15;;;4.80;99.90;;;;;;5022314;28;20065;-54
2022/01/17 00:06:27;;;;;;;20.10;2.83;;;4.80;99.90;;;;;;5022394;28;20043;-53
2022/01/17 00:08:53;;;;;;;24.40;2.83;;;4.80;99.90;;;;;;5022144;28;20041;-52
2022/01/17 00:11:19;;;;;;;18.98;3.05;;;4.90;99.90;;;;;;5021893;28;20425;-53
2022/01/17 00:13:47;;;;;;;18.58;2.78;;;4.80;99.90;;;;;;5021216;28;20705;-53
2022/01/17 00:16:21;;;;;;;18.45;2.85;;;4.70;99.90;;;;;;5022170;28;20037;-50
2022/01/17 00:21:15;;;;;;;19.23;2.72;;;4.70;99.90;;;;;;5021028;28;20053;-53
2022/01/17 00:23:41;;;;;;;21.30;2.58;;;4.90;99.90;;;;;;5020349;28;20131;-52
2022/01/17 00:26:09;;;;;;;16.48;2.33;;;4.90;99.90;;;;;;5019924;28;20053;-50
2022/01/17 00:28:36;;;;;;;18.50;3.05;;;5.00;99.90;;;;;;5021395;28;20049;-52
2022/01/17 00:31:05;;;;;;;16.13;2.15;;;4.90;99.90;;;;;;5021058;28;20041;-53
2022/01/17 00:33:31;;;;;;;19.40;2.75;;;4.90;99.90;;;;;;5020532;28;20160;-52
2022/01/17 00:35:57;;;;;;;21.42;2.20;;;;;;;;;;5021736;28;20119;-53
2022/01/17 00:38:23;;;;;;;22.67;2.72;;;;;;;;;;5019977;28;20072;-53
2022/01/17 00:40:49;;;;;;;22.50;3.80;;;4.90;99.90;;;;;;5020395;28;20080;-53
2022/01/17 00:43:19;;;;;;;17.15;2.47;;;4.90;99.90;;;;;;5021445;28;25198;-54
2022/01/17 00:45:45;;;;;;;15.48;2.63;;;;;;;;;;5018114;28;20282;-50
2022/01/17 00:48:11;;;;;;;18.65;2.53;;;5.10;99.90;;;;;;5020703;28;20477;-52
2022/01/17 00:50:39;;;;;;;22.33;3.72;;;5.00;99.90;;;;;;5021259;28;20037;-50
2022/01/17 00:53:06;;;;;;;23.77;3.95;;;4.70;99.90;;;;;;5021552;28;20060;-54
2022/01/17 00:55:33;;;;;;;14.15;2.35;;;4.80;99.90;;;;;;5021545;28;20099;-52
2022/01/17 00:57:59;;;;;;;16.30;2.25;;;4.80;99.90;;;;;;5021930;28;20203;-52
2022/01/17 01:00:25;;;;;;;18.42;2.50;;;;;;;;;;5021994;28;20514;-49
2022/01/17 01:02:52;;;;;;;17.40;2.30;;;;;;;;;;5041577;28;20052;-52
2022/01/17 01:05:19;;;;;;;20.52;3.47;;;;;;;;;;5061083;28;20400;-50
2022/01/17 01:07:45;;;;;;;17.60;2.20;;;4.70;99.90;;;;;;5061809;28;20033;-52
2022/01/17 01:10:13;;;;;;;17.73;2.83;;;4.60;99.90;;;;;;5066697;28;20045;-53
2022/01/17 01:12:47;;;;;;;20.77;3.00;;;4.70;99.90;;;;;;5063500;28;20186;-53
2022/01/17 01:15:21;;;;;;;18.10;2.65;;;4.50;99.90;;;;;;5062949;28;20041;-53
2022/01/17 01:17:53;;;;;;;21.10;3.83;;;;;;;;;;5062566;28;20052;-49
2022/01/17 01:20:55;;;;;;;28.17;4.07;;;4.80;99.90;;;;;;5064336;28;20382;-51
2022/01/17 01:28:44;;;;;;;21.42;2.63;;;;;;;;;;5063331;28;20041;-51
2022/01/17 01:31:17;;;;;;;15.27;3.33;;;4.70;99.90;;;;;;5063082;28;20079;-53
2022/01/17 01:33:50;;;;;;;20.25;3.53;;;;;;;;;;5062668;28;20679;-49
2022/01/17 01:36:23;;;;;;;19.73;4.53;;;4.90;99.90;;;;;;5063509;28;20045;-49
2022/01/17 01:38:49;;;;;;;17.33;2.55;;;;;;;;;;5061112;28;24401;-50
2022/01/17 01:41:15;;;;;;;20.02;2.65;;;;;;;;;;5064902;28;20498;-52
2022/01/17 01:43:41;;;;;;;22.05;3.28;;;;;;;;;;5062781;28;20135;-52
2022/01/17 01:46:11;;;;;;;25.35;3.42;;;4.70;99.90;;;;;;5063189;28;20040;-50
2022/01/17 01:48:37;;;;;;;23.65;2.72;;;;;;;;;;5063338;28;20106;-52
2022/01/17 01:51:03;;;;;;;22.55;2.50;;;;;;;;;;5061988;28;20040;-53
2022/01/17 01:53:29;;;;;;;22.48;4.82;;;4.60;99.90;;;;;;5063197;28;20120;-52
2022/01/17 01:55:56;;;;;;;20.27;3.10;;;4.60;99.90;;;;;;5063418;28;20068;-53
2022/01/17 01:58:24;;;;;;;21.95;3.20;;;4.40;99.90;;;;;;5064264;28;20051;-52
2022/01/17 02:00:51;;;;;;;23.00;3.78;;;4.50;99.90;;;;;;5064435;28;20044;-53
2022/01/17 02:03:17;;;;;;;25.25;4.03;;;;;;;;;;5063176;28;20123;-52
2022/01/17 02:05:44;;;;;;;24.38;3.33;;;;;;;;;;5063229;28;20076;-52
2022/01/17 02:08:13;;;;;;;14.68;2.38;;;4.40;99.90;;;;;;5063788;28;20036;-52
2022/01/17 02:10:39;;;;;;;20.00;2.67;;;;;;;;;;5063591;28;20043;-53
2022/01/17 02:13:05;;;;;;;22.10;2.72;;;;;;;;;;5065228;28;20505;-53
2022/01/17 02:15:32;;;;;;;20.08;2.80;;;;;;;;;;5064990;28;20033;-53
2022/01/17 02:17:58;;;;;;;17.15;2.53;;;;;;;;;;5065204;28;20040;-52
2022/01/17 02:20:41;;;;;;;22.25;2.90;;;4.40;99.90;;;;;;5061505;28;20032;-53
2022/01/17 02:23:08;;;;;;;14.70;2.30;;;;;;;;;;5063104;28;20440;-53
2022/01/17 02:25:35;;;;;;;19.55;3.22;;;4.20;99.90;;;;;;5063030;28;20516;-52
2022/01/17 02:28:02;;;;;;;25.50;3.22;;;4.40;99.90;;;;;;5064218;28;20486;-53
2022/01/17 02:30:31;;;;;;;18.05;2.17;;;;;;;;;;5064941;28;20189;-52
2022/01/17 02:32:58;;;;;;;18.30;3.78;;;;;;;;;;5063966;28;20053;-53
2022/01/17 02:35:24;;;;;;;17.95;2.33;;;;;;;;;;5063849;28;20043;-53
2022/01/17 02:37:51;;;;;;;23.23;3.28;;;;;;;;;;5062483;28;20432;-53
2022/01/17 02:40:19;;;;;;;25.50;2.45;;;4.00;99.90;;;;;;5065340;28;20168;-53
2022/01/17 02:42:50;;;;;;;24.38;2.38;;;4.00;99.90;;;;;;5065008;28;20119;-52
2022/01/17 02:45:31;;;;;;;19.80;3.50;;;;;;;;;;5064059;28;20032;-51
2022/01/17 02:48:00;;;;;;;20.25;3.05;;;4.00;99.90;;;;;;5062182;28;20113;-53
2022/01/17 02:50:26;;;;;;;21.13;3.08;;;4.10;99.90;;;;;;5062690;28;20119;-52
2022/01/17 02:52:57;;;;;;;18.77;2.72;;;4.00;99.90;;;;;;5063123;28;20080;-53
2022/01/17 02:55:23;;;;;;;24.83;3.10;;;;;;;;;;5062716;28;20046;-51
2022/01/17 02:57:49;;;;;;;20.60;2.90;;;;;;;;;;5062960;28;20032;-51
2022/01/17 03:00:15;;;;;;;23.63;4.20;;;;;;;;;;5062149;28;20068;-53
2022/01/17 03:02:48;;;;;;;16.08;2.30;;;4.20;99.90;;;;;;5063316;28;20055;-54
2022/01/17 03:05:14;;;;;;;21.77;3.55;;;4.30;99.90;;;;;;5062929;28;20127;-51
2022/01/17 03:07:41;;;;;;;23.65;3.03;;;;;;;;;;5062868;28;20385;-53
2022/01/17 03:10:13;;;;;;;20.55;2.40;;;;;;;;;;5063048;28;20540;-51
2022/01/17 03:12:39;;;;;;;15.65;2.25;;;;;;;;;;5062818;28;20048;-50
2022/01/17 03:15:06;;;;;;;27.80;4.28;;;4.30;99.90;;;;;;5062867;28;20040;-53
2022/01/17 03:17:32;;;;;;;19.30;3.35;;;;;;;;;;5062614;28;20378;-54
2022/01/17 03:19:58;;;;;;;22.42;2.60;;;;;;;;;;5062362;28;20513;-52
2022/01/17 03:22:24;;;;;;;19.10;3.05;;;;;;;;;;5062617;28;20131;-53
2022/01/17 03:24:50;;;;;;;22.13;2.60;;;;;;;;;;5061884;28;20497;-53
2022/01/17 03:27:16;;;;;;;17.77;2.83;;;4.30;99.90;;;;;;5061761;28;20024;-52
2022/01/17 03:29:41;;;;;;;17.90;2.55;;;4.30;99.90;;;;;;5062310;28;20480;-53
2022/01/17 03:32:07;;;;;;;16.63;3.50;;;4.40;99.90;;;;;;5062243;28;20049;-53
2022/01/17 03:34:33;;;;;;;22.33;3.50;;;;;;;;;;5062539;28;20564;-52
2022/01/17 03:36:59;;;;;;;19.42;2.40;;;;;;;;;;5062826;28;20036;-51
2022/01/17 03:39:27;;;;;;;19.42;2.83;;;4.30;99.90;;;;;;5062217;28;20039;-53
2022/01/17 03:41:53;;;;;;;20.42;2.38;;;4.50;99.90;;;;;;5063380;28;20040;-50
2022/01/17 03:44:19;;;;;;;28.92;3.58;;;;;;;;;;5062432;28;20349;-54
2022/01/17 03:46:45;;;;;;;24.13;3.03;;;;;;;;;;5063697;28;20044;-53
2022/01/17 03:49:11;;;;;;;26.45;4.18;;;;;;;;;;5062334;28;20480;-52
2022/01/17 03:51:36;;;;;;;16.27;3.03;;;4.60;99.90;;;;;;5062153;28;20405;-50
2022/01/17 03:54:02;;;;;;;21.65;3.53;;;4.80;99.90;;;;;;5062607;28;20593;-51
2022/01/17 03:56:30;;;;;;;16.58;2.42;;;4.80;99.90;;;;;;5062838;28;20040;-51
2022/01/17 03:58:55;;;;;;;22.45;3.72;;;4.90;99.90;;;;;;5062547;28;20125;-52
2022/01/17 04:01:21;;;;;;;19.00;2.20;;;;;;;;;;5061419;28;20074;-52
2022/01/17 04:03:49;;;;;;;20.63;3.20;;;4.90;99.90;;;;;;5060933;28;20438;-53
2022/01/17 04:06:15;;;;;;;17.92;2.55;;;4.90;99.90;;;;;;5061881;28;20123;-54
2022/01/17 04:08:42;;;;;;;21.85;2.63;;;;;;;;;;5061215;28;20044;-53
2022/01/17 04:11:09;;;;;;;10.93;2.13;;;4.90;99.90;;;;;;5060128;28;20525;-52
2022/01/17 04:13:36;;;;;;;26.38;3.85;;;;;;;;;;5062553;28;20036;-50
2022/01/17 04:16:02;;;;;;;21.55;2.83;;;4.90;99.90;;;;;;5060513;28;20604;-52
2022/01/17 04:18:29;;;;;;;13.82;2.50;;;;;;;;;;5059895;28;20036;-53
2022/01/17 04:21:00;;;;;;;19.75;2.45;;;4.80;99.90;;;;;;5061337;28;20386;-50
2022/01/17 04:23:26;;;;;;;15.25;2.60;;;4.80;99.90;;;;;;5059657;28;20096;-53
2022/01/17 04:25:51;;;;;;;16.67;2.72;;;4.70;99.90;;;;;;5060542;28;20047;-53
2022/01/17 04:28:17;;;;;;;16.65;2.90;;;;;;;;;;5061666;28;20033;-54
2022/01/17 04:30:43;;;;;;;18.60;2.97;;;4.90;99.90;;;;;;5061858;28;20041;-53
2022/01/17 04:33:10;;;;;;;14.93;2.90;;;;;;;;;;5061096;28;20036;-52
2022/01/17 04:35:37;;;;;;;17.73;2.78;;;5.00;99.90;;;;;;5060524;28;20139;-54
2022/01/17 04:38:08;;;;;;;16.25;2.92;;;5.10;99.90;;;;;;5061478;28;20660;-54
2022/01/17 04:40:39;;;;;;;14.43;2.50;;;5.10;99.90;;;;;;5059429;28;20034;-52
2022/01/17 04:43:14;;;;;;;16.58;2.22;;;5.20;99.90;;;;;;5062378;28;20060;-51
2022/01/17 04:45:40;;;;;;;19.05;2.58;;;;;;;;;;5065637;28;20031;-52
2022/01/17 04:48:06;;;;;;;25.33;4.28;;;5.20;99.90;;;;;;5065328;28;20045;-53
2022/01/17 04:50:33;;;;;;;27.23;3.30;;;;;;;;;;5064200;28;20536;-51
2022/01/17 04:53:01;;;;;;;21.48;2.53;;;5.30;99.90;;;;;;5066546;28;20413;-51
2022/01/17 04:55:28;;;;;;;17.50;2.70;;;5.30;99.90;;;;;;5066412;28;20123;-54
2022/01/17 04:57:56;;;;;;;15.90;3.55;;;5.50;99.90;;;;;;5066699;28;20044;-53
2022/01/17 05:00:25;;;;;;;19.35;3.00;;;5.40;99.90;;;;;;5065827;28;20071;-52
2022/01/17 05:02:53;;;;;;;20.33;2.88;;;5.40;99.90;;;;;;5066095;28;20255;-50
2022/01/17 05:05:20;;;;;;;23.25;2.97;;;5.40;99.90;;;;;;5065463;28;20051;-51
2022/01/17 05:07:46;;;;;;;19.50;2.97;;;;;;;;;;5065820;28;20138;-50
2022/01/17 05:10:15;;;;;;;16.98;2.75;;;5.60;99.90;;;;;;5065056;28;20460;-50
2022/01/17 05:12:42;;;;;;;28.73;4.82;;;5.60;99.90;;;;;;5066217;28;20040;-50
2022/01/17 05:15:19;;;;;;;21.98;3.08;;;5.60;99.90;;;;;;5064111;28;20632;-52
2022/01/17 05:20:32;;;;;;;21.58;3.17;;;;;;;;;;5064473;28;20048;-51
2022/01/17 05:22:57;;;;;;;20.48;3.40;;;5.70;99.90;;;;;;5064708;28;20123;-53
2022/01/17 05:25:23;;;;;;;25.75;4.95;;;5.70;99.90;;;;;;5063940;28;20603;-52
2022/01/17 05:27:49;;;;;;;25.77;4.53;;;5.80;99.90;;;;;;5063341;28;20063;-49
2022/01/17 05:30:18;;;;;;;28.70;3.92;;;5.70;99.90;;;;;;5064894;28;20461;-52
2022/01/17 05:32:44;;;;;;;25.83;4.10;;;5.70;99.90;;;;;;5062388;28;20119;-49
2022/01/17 05:35:12;;;;;;;23.15;3.75;;;5.80;99.90;;;;;;5063938;28;20611;-53
2022/01/17 05:37:39;;;;;;;19.48;3.00;;;5.70;99.90;;;;;;5063769;28;20036;-52
2022/01/17 05:40:08;;;;;;;19.55;3.72;;;5.90;99.90;;;;;;5064854;28;20039;-53
2022/01/17 05:42:34;;;;;;;23.88;3.58;;;5.80;99.90;;;;;;5065021;28;20048;-53
2022/01/17 05:45:00;;;;;;;18.33;3.90;;;5.80;99.90;;;;;;5064562;28;20044;-53
2022/01/17 05:47:25;;;;;;;24.10;5.45;;;5.80;99.90;;;;;;5064210;28;20082;-54
2022/01/17 05:49:53;;;;;;;31.45;4.22;;;5.70;99.90;;;;;;5062815;28;20029;-54
2022/01/17 05:52:18;;;;;;;25.10;3.85;;;5.70;99.90;;;;;;5062591;28;20083;-53
2022/01/17 05:54:45;;;;;;;19.77;4.90;;;5.60;99.90;;;;;;5062023;28;20146;-54
2022/01/17 05:57:12;;;;;;;23.58;5.35;;;5.90;99.90;;;;;;5063824;28;20036;-53
2022/01/17 05:59:39;;;;;;;28.75;6.15;;;5.60;99.90;;;;;;5063113;28;20788;-51
2022/01/17 06:02:05;;;;;;;21.55;4.00;;;5.90;99.90;;;;;;5062242;28;20052;-51
2022/01/17 06:04:31;;;;;;;29.48;4.25;;;5.80;99.90;;;;;;5063821;28;20113;-53
2022/01/17 06:06:57;;;;;;;26.05;4.63;;;5.80;99.90;;;;;;5065366;28;20493;-54
2022/01/17 06:09:23;;;;;;;21.17;3.83;;;5.90;99.90;;;;;;5063705;28;20397;-53
2022/01/17 06:11:52;;;;;;;31.83;4.68;;;5.80;99.90;;;;;;5064903;28;20039;-52
2022/01/17 06:14:18;;;;;;;21.98;3.22;;;5.80;99.90;;;;;;5064790;28;20381;-54
2022/01/17 06:16:45;;;;;;;26.77;3.50;;;5.90;99.90;;;;;;5064009;28;20531;-52
2022/01/17 06:19:12;;;;;;;32.70;7.05;;;;;;;;;;5065055;28;20068;-52
2022/01/17 06:21:40;;;;;;;24.75;4.30;;;5.80;99.90;;;;;;5065151;28;20122;-49
2022/01/17 06:24:06;;;;;;;28.50;3.72;;;5.80;99.90;;;;;;5065320;28;20044;-52
2022/01/17 06:26:33;;;;;;;22.50;4.45;;;5.90;99.90;;;;;;5063606;28;20037;-51
2022/01/17 06:28:59;;;;;;;33.42;5.18;;;5.80;99.90;;;;;;5062867;28;20120;-53
2022/01/17 06:31:25;;;;;;;25.52;4.68;;;5.80;99.90;;;;;;5064080;28;20052;-52
2022/01/17 06:33:51;;;;;;;25.75;3.58;;;5.80;99.90;;;;;;5063447;28;20393;-51
2022/01/17 06:36:18;;;;;;;40.75;5.32;;;5.90;99.90;;;;;;5062976;28;20463;-52
2022/01/17 06:38:44;;;;;;;31.58;4.47;;;5.80;99.90;;;;;;5063173;28;20132;-53
2022/01/17 06:41:10;;;;;;;29.40;5.18;;;;;;;;;;5063706;28;20119;-53
2022/01/17 06:43:39;;;;;;;31.95;5.15;;;5.80;99.90;;;;;;5063517;28;20082;-53
2022/01/17 06:46:05;;;;;;;32.75;4.22;;;5.80;99.90;;;;;;5063581;28;20504;-50
2022/01/17 06:48:30;;;;;;;31.67;4.88;;;5.60;99.90;;;;;;5062406;28;20044;-52
2022/01/17 06:50:58;;;;;;;28.08;4.90;;;5.60;99.90;;;;;;5064238;28;20868;-52
2022/01/17 06:53:27;;;;;;;26.23;5.38;;;5.60;99.90;;;;;;5063096;28;20036;-51
2022/01/17 06:55:53;;;;;;;40.35;6.00;;;5.70;99.90;;;;;;5062749;28;20044;-53
2022/01/17 06:58:19;;;;;;;28.40;5.63;;;5.80;99.90;;;;;;5062854;28;20047;-53
2022/01/17 07:00:45;;;;;;;20.60;4.32;;;5.70;99.90;;;;;;5062516;28;20044;-51
2022/01/17 07:03:11;;;;;;;30.80;5.60;;;5.80;99.90;;;;;;5063240;28;20135;-52
2022/01/17 07:05:37;;;;;;;29.90;4.03;;;5.90;99.90;;;;;;5063475;28;20468;-53
2022/01/17 07:08:05;;;;;;;28.48;3.70;;;5.80;99.90;;;;;;5063194;28;20039;-52
2022/01/17 07:10:31;;;;;;;33.40;3.95;;;5.90;99.90;;;;;;5062293;28;20036;-51
2022/01/17 07:12:57;;;;;;;29.35;4.65;;;;;;;;;;5063343;28;20036;-49
2022/01/17 07:15:25;;;;;;;34.50;4.95;;;5.80;99.90;;;;;;5062880;28;20731;-53
2022/01/17 07:17:50;;;;;;;27.58;5.68;;;5.80;99.90;;;;;;5063147;28;20082;-53
2022/01/17 07:20:16;;;;;;;29.75;4.65;;;5.90;99.90;;;;;;5063769;28;20444;-52
2022/01/17 07:22:42;;;;;;;30.67;5.45;;;5.80;99.90;;;;;;5063014;28;20063;-46
2022/01/17 07:25:08;;;;;;;34.78;3.88;;;5.80;99.90;;;;;;5063900;28;20157;-52
2022/01/17 07:27:35;;;;;;;37.58;4.78;;;6.10;99.90;;;;;;5062448;28;20457;-53
2022/01/17 07:30:05;;;;;;;31.05;4.30;;;6.00;99.90;;;;;;5063369;28;20046;-48
2022/01/17 07:32:31;;;;;;;33.45;5.10;;;5.90;99.90;;;;;;5062894;28;20074;-48
2022/01/17 07:34:56;;;;;;;32.78;7.20;;;6.00;99.90;;;;;;5063948;28;20115;-49
2022/01/17 07:37:24;;;;;;;27.50;4.97;;;6.00;99.90;;;;;;5062524;28;20087;-49
2022/01/17 07:39:52;;;;;;;33.55;4.10;;;5.90;99.90;;;;;;5062460;28;20500;-51
2022/01/17 07:42:17;;;;;;;36.42;5.32;;;6.00;99.90;;;;;;5062165;28;20048;-50
2022/01/17 07:44:44;;;;;;;33.85;5.65;;;6.10;99.90;;;;;;5063432;28;20483;-49
2022/01/17 07:47:18;;;;;;;31.55;5.90;;;6.00;99.90;;;;;;5062500;28;20482;-50
2022/01/17 07:49:45;;;;;;;26.42;4.90;;;6.10;99.90;;;;;;5061563;28;20556;-53
2022/01/17 07:52:11;;;;;;;40.92;4.78;;;6.10;99.90;;;;;;5062383;28;20067;-51
2022/01/17 07:54:43;;;;;;;26.30;4.05;;;6.20;99.90;;;;;;5062116;28;20089;-51
2022/01/17 07:57:13;;;;;;;35.95;4.90;;;6.10;99.90;;;;;;5061157;28;20584;-51
2022/01/17 07:59:38;;;;;;;39.25;6.13;;;6.20;99.90;;;;;;5061009;28;20036;-51
2022/01/17 08:02:04;;;;;;;36.67;6.35;;;6.10;99.90;;;;;;5060173;28;25111;-51
2022/01/17 08:04:30;;;;;;;37.70;4.82;;;6.30;99.90;;;;;;5061984;28;20052;-52
2022/01/17 08:06:56;;;;;;;42.30;5.85;;;6.20;99.90;;;;;;5061825;28;20036;-52
2022/01/17 08:09:30;;;;;;;30.50;4.53;;;6.30;99.90;;;;;;5061499;28;20064;-53
2022/01/17 08:11:57;;;;;;;35.42;4.75;;;6.50;99.90;;;;;;5059952;28;20036;-51
2022/01/17 08:14:24;;;;;;;31.40;5.15;;;6.50;99.90;;;;;;5060459;28;20085;-50
2022/01/17 08:16:51;;;;;;;28.95;4.95;;;6.30;99.90;;;;;;5059514;28;20037;-53
2022/01/17 08:19:17;;;;;;;32.30;4.35;;;6.50;99.90;;;;;;5060598;28;20058;-52
2022/01/17 08:21:44;;;;;;;42.80;7.20;;;6.60;99.90;;;;;;5060979;28;20064;-53
2022/01/17 08:24:09;;;;;;;35.00;4.65;;;6.50;99.90;;;;;;5061096;28;20053;-52
2022/01/17 08:26:42;;;;;;;30.63;6.07;;;6.60;99.90;;;;;;5060580;28;20039;-52
2022/01/17 08:29:10;;;;;;;34.75;6.07;;;6.90;99.90;;;;;;5060352;28;20044;-52
2022/01/17 08:31:36;;;;;;;32.63;5.28;;;6.70;99.90;;;;;;5060836;28;20037;-52
2022/01/17 08:34:02;;;;;;;30.88;5.35;;;6.70;99.90;;;;;;5060805;28;20052;-53
2022/01/17 08:36:30;;;;;;;32.83;5.05;;;6.70;99.90;;;;;;5058869;28;20127;-52
2022/01/17 08:38:55;;;;;;;33.30;6.20;;;6.80;99.90;;;;;;5059782;28;20033;-52
2022/01/17 08:41:21;;;;;;;30.42;4.93;;;6.70;99.90;;;;;;5058428;28;20118;-53
2022/01/17 08:43:49;;;;;;;47.67;6.35;;;6.90;99.90;;;;;;5061853;28;20032;-51
2022/01/17 08:46:15;;;;;;;36.97;5.95;;;6.80;99.90;;;;;;5060086;28;20064;-53
2022/01/17 08:48:42;;;;;;;32.70;5.00;;;6.90;99.90;;;;;;5060237;28;20607;-50
2022/01/17 08:51:07;;;;;;;39.58;5.15;;;7.00;99.90;;;;;;5060409;28;20158;-50
2022/01/17 08:53:34;;;;;;;38.95;6.10;;;6.90;99.90;;;;;;5060842;28;20071;-53
2022/01/17 08:56:00;;;;;;;27.48;4.15;;;7.00;99.90;;;;;;5060624;28;20107;-51
2022/01/17 08:58:26;;;;;;;29.23;4.35;;;7.30;99.90;;;;;;5061117;28;20127;-53
2022/01/17 09:00:52;;;;;;;45.17;7.18;;;7.30;99.90;;;;;;5060684;28;20037;-53
2022/01/17 09:03:19;;;;;;;41.25;5.70;;;7.10;99.90;;;;;;5060892;28;20056;-54
2022/01/17 09:05:45;;;;;;;31.73;5.68;;;7.20;99.90;;;;;;5060526;28;20040;-53
2022/01/17 09:08:11;;;;;;;37.55;6.63;;;7.20;99.90;;;;;;5060826;28;20080;-52
2022/01/17 09:10:38;;;;;;;29.63;5.50;;;7.30;99.90;;;;;;5060524;28;20036;-51
2022/01/17 09:13:04;;;;;;;42.05;5.55;;;7.30;99.90;;;;;;5060606;28;21071;-52
2022/01/17 09:15:30;;;;;;;34.03;4.60;;;7.30;99.90;;;;;;5061116;28;20054;-50
2022/01/17 09:17:56;;;;;;;31.08;4.22;;;7.30;99.90;;;;;;5061047;28;20509;-53
2022/01/17 09:20:22;;;;;;;27.30;5.30;;;7.50;99.90;;;;;;5059808;28;20032;-52
2022/01/17 09:22:48;;;;;;;28.17;4.55;;;7.40;99.90;;;;;;5060002;28;20045;-51
2022/01/17 09:25:14;;;;;;;46.25;7.00;;;7.50;99.90;;;;;;5060300;28;20037;-54
2022/01/17 09:27:41;;;;;;;38.10;5.38;;;9.40;99.90;;;;;;5059469;28;20428;-50
2022/01/17 09:30:11;;;;;;;33.95;5.80;;;7.60;99.90;;;;;;5063663;28;20040;-52
2022/01/17 09:32:39;;;;;;;37.55;6.43;;;7.80;99.90;;;;;;5062266;28;20135;-53
2022/01/17 09:35:06;;;;;;;41.47;5.50;;;7.80;99.90;;;;;;5062801;28;20572;-53
2022/01/17 09:37:32;;;;;;;31.20;4.90;;;7.60;99.90;;;;;;5062936;28;20068;-54
2022/01/17 09:39:58;;;;;;;36.05;5.50;;;7.80;99.90;;;;;;5063048;28;20072;-53
2022/01/17 09:42:24;;;;;;;36.30;7.22;;;7.80;99.90;;;;;;5063355;28;20123;-53
2022/01/17 09:44:49;;;;;;;36.85;5.10;;;7.80;99.90;;;;;;5064304;28;20423;-50
2022/01/17 09:47:18;;;;;;;40.05;5.82;;;8.00;99.90;;;;;;5064063;28;20072;-51
2022/01/17 09:49:54;;;;;;;40.78;6.57;;;9.30;99.90;;;;;;5063054;28;20040;-51
2022/01/17 09:52:36;;;;;;;32.70;5.88;;;8.10;99.90;;;;;;5060669;28;20447;-53
2022/01/17 09:55:21;;;;;;;34.30;6.15;;;8.00;99.90;;;;;;5061214;28;20040;-51
2022/01/17 09:58:07;;;;;;;32.17;6.68;;;8.00;99.90;;;;;;5061512;28;20032;-47
2022/01/17 10:00:39;;;;;;;37.00;6.57;;;8.20;99.90;;;;;;5062408;28;20113;-53
2022/01/17 10:03:10;;;;;;;38.42;5.78;;;8.10;99.90;;;;;;5061207;28;20049;-51
2022/01/17 10:05:37;;;;;;;39.23;5.47;;;8.30;99.90;;;;;;5063050;28;20047;-52
2022/01/17 10:08:08;;;;;;;38.22;6.40;;;6.40;99.90;;;;;;5063827;28;20287;-50
2022/01/17 10:10:44;;;;;;;46.47;5.90;;;8.40;99.90;;;;;;5063339;28;20037;-52
2022/01/17 10:13:18;;;;;;;42.40;6.72;;;8.60;99.90;;;;;;5062594;28;20116;-49
2022/01/17 10:16:06;;;;;;;36.85;6.03;;;8.50;99.90;;;;;;5062404;28;20575;-53
2022/01/17 10:18:59;;;;;;;45.90;6.72;;;8.30;99.90;;;;;;5061171;28;20393;-52
2022/01/17 10:21:33;;;;;;;39.03;6.93;;;9.40;99.90;;;;;;5055942;28;20512;-51
2022/01/17 10:24:35;;;;;;;40.58;5.90;;;8.60;99.90;;;;;;5061953;28;20048;-53
2022/01/17 10:35:26;;;;;;;38.13;6.30;;;9.30;99.90;;;;;;5063655;28;20047;-53
2022/01/17 10:37:55;;;;;;;38.38;5.93;;;9.10;99.90;;;;;;5059875;28;20036;-52
2022/01/17 10:40:21;;;;;;;45.53;8.48;;;9.00;99.90;;;;;;5061744;28;20039;-53
2022/01/17 10:42:48;;;;;;;39.63;6.63;;;9.70;99.90;;;;;;5062465;28;20044;-54
2022/01/17 10:45:21;;;;;;;39.40;7.50;;;9.00;99.90;;;;;;5062850;28;20052;-49
2022/01/17 10:47:50;;;;;;;37.00;6.35;;;8.70;99.90;;;;;;5062725;28;20574;-53
2022/01/17 10:50:26;;;;;;;40.80;6.53;;;10.10;99.90;;;;;;5062332;28;20594;-50
2022/01/17 10:52:54;;;;;;;44.00;8.25;;;8.80;99.90;;;;;;5062893;28;20036;-53
2022/01/17 10:55:24;;;;;;;41.72;8.25;;;9.90;99.90;;;;;;5063155;28;20040;-54
2022/01/17 10:57:56;;;;;;;44.08;7.53;;;9.90;99.90;;;;;;5061436;28;20045;-49
2022/01/17 11:00:27;;;;;;;44.70;7.90;;;8.70;99.90;;;;;;5061978;28;20036;-48
2022/01/17 11:02:56;;;;;;;36.42;7.18;;;8.70;99.90;;;;;;5062538;28;20048;-52
2022/01/17 11:05:23;;;;;;;45.67;7.35;;;8.90;99.90;;;;;;5062484;28;20110;-52
2022/01/17 11:07:55;;;;;;;50.03;8.73;;;8.70;99.90;;;;;;5060636;28;21210;-53
2022/01/17 11:10:42;;;;;;;52.20;9.30;;;8.70;99.90;;;;;;5062145;28;20044;-53
2022/01/17 11:13:20;;;;;;;48.00;7.40;;;8.80;99.90;;;;;;5005730;28;20877;-51
2022/01/17 11:15:52;;;;;;;48.70;8.27;;;8.90;99.90;;;;;;5010657;28;20615;-53
2022/01/17 11:18:22;;;;;;;43.70;6.82;;;8.80;99.90;;;;;;4999640;28;20042;-51
2022/01/17 11:20:50;;;;;;;43.70;6.53;;;10.10;99.90;;;;;;5006927;28;20044;-51
2022/01/17 11:23:17;;;;;;;44.20;6.47;;;9.10;99.90;;;;;;5013525;28;20046;-51
2022/01/17 11:25:44;;;;;;;46.97;7.68;;;8.90;99.90;;;;;;5005151;28;20048;-51
2022/01/17 11:28:15;;;;;;;43.22;8.38;;;9.10;99.90;;;;;;5007317;28;20056;-55
2022/01/17 11:30:41;;;;;;;42.92;7.25;;;11.10;99.90;;;;;;5015859;28;20289;-54
2022/01/17 11:33:09;;;;;;;54.65;8.63;;;9.10;99.90;;;;;;5008725;28;20687;-55
2022/01/17 11:35:41;;;;;;;43.25;8.02;;;9.30;99.90;;;;;;5013631;28;20065;-54
2022/01/17 11:38:11;;;;;;;42.63;7.68;;;9.30;99.90;;;;;;5017265;28;20136;-51
2022/01/17 11:40:40;;;;;;;51.67;9.13;;;9.80;99.90;;;;;;4999828;28;20041;-51
2022/01/17 11:43:18;;;;;;;46.53;8.18;;;9.20;99.90;;;;;;5014055;28;20079;-51
2022/01/17 11:45:45;;;;;;;39.63;6.70;;;9.20;99.90;;;;;;5006029;28;20044;-54
2022/01/17 11:48:37;;;;;;;47.67;7.30;;;9.50;99.90;;;;;;5015282;28;20104;-53
2022/01/17 11:51:13;;;;;;;36.70;6.33;;;10.30;99.90;;;;;;5044802;28;20052;-50
2022/01/17 11:53:44;;;;;;;46.88;7.85;;;9.40;99.90;;;;;;5062854;28;20271;-51
2022/01/17 11:56:14;;;;;;;44.45;9.60;;;10.30;99.90;;;;;;5059707;28;21133;-52
2022/01/17 11:58:47;;;;;;;50.30;8.77;;;9.90;99.90;;;;;;5062027;28;20163;-53
2022/01/17 12:01:13;;;;;;;;;;;9.40;99.90;;;;;;5060948;28;20032;-52
2022/01/17 12:03:48;;;;;;;48.45;7.03;;;9.50;99.90;;;;;;5061504;28;19968;-51
2022/01/17 12:06:32;;;;;;;45.60;6.88;;;9.30;99.90;;;;;;5060263;28;20055;-54
2022/01/17 12:09:22;;;;;;;44.22;7.20;;;9.40;99.90;;;;;;5058913;28;20041;-50
2022/01/17 12:12:09;;;;;;;48.78;7.45;;;9.40;99.90;;;;;;5061261;28;20033;-52
2022/01/17 12:14:54;;;;;;;47.58;6.78;;;9.30;99.90;;;;;;5060953;28;20102;-57
2022/01/17 12:17:31;;;;;;;47.08;9.18;;;9.40;99.90;;;;;;5060484;28;20048;-54
2022/01/17 12:20:06;;;;;;;55.10;11.23;;;9.60;99.90;;;;;;5060343;28;20578;-50
2022/01/17 12:22:38;;;;;;;55.45;8.52;;;9.30;99.90;;;;;;5061442;28;20041;-50
2022/01/17 12:25:26;;;;;;;47.83;7.85;;;9.30;99.90;;;;;;5060806;28;20036;-53
2022/01/17 12:28:17;;;;;;;49.10;7.78;;;10.30;99.90;;;;;;5060930;28;20082;-52
2022/01/17 12:30:52;;;;;;;44.88;7.90;;;9.10;99.90;;;;;;5058730;28;20040;-51
2022/01/17 12:33:30;;;;;;;51.95;8.32;;;9.10;99.90;;;;;;5060870;28;20040;-53
2022/01/17 12:36:00;;;;;;;51.70;9.60;;;9.20;99.90;;;;;;5058622;28;20047;-54
2022/01/17 12:38:40;;;;;;;51.80;7.68;;;9.00;99.90;;;;;;5060651;28;20036;-52
2022/01/17 12:41:06;;;;;;;47.78;8.45;;;9.20;99.90;;;;;;5058676;28;20040;-53
2022/01/17 12:43:34;;;;;;;50.08;10.10;;;9.00;99.90;;;;;;5059655;28;20044;-54
2022/01/17 12:46:10;;;;;;;51.15;8.65;;;9.90;99.90;;;;;;5060378;28;20068;-53
2022/01/17 12:48:38;;;;;;;43.05;6.93;;;9.00;99.90;;;;;;5058213;28;20135;-54
2022/01/17 12:51:08;;;;;;;54.95;7.28;;;8.80;99.90;;;;;;5058230;28;20033;-54
2022/01/17 12:53:35;;;;;;;54.15;8.18;;;9.80;99.90;;;;;;5057397;28;20533;-53
2022/01/17 12:56:08;;;;;;;47.67;8.43;;;10.00;99.90;;;;;;5041537;28;20037;-52
2022/01/17 12:58:40;;;;;;;51.55;9.40;;;9.70;99.90;;;;;;5059064;28;20036;-54
2022/01/17 13:01:09;;;;;;;51.95;9.48;;;8.90;99.90;;;;;;5059440;28;20615;-53
2022/01/17 13:03:37;;;;;;;59.35;9.77;;;10.00;99.90;;;;;;5060755;28;20040;-52
2022/01/17 13:06:05;;;;;;;47.80;8.35;;;9.10;99.90;;;;;;5063987;28;20056;-52
2022/01/17 13:08:33;;;;;;;52.53;9.50;;;8.80;99.90;;;;;;5062768;28;20493;-54
2022/01/17 13:11:00;;;;;;;41.90;7.97;;;8.90;99.90;;;;;;5063797;28;20045;-53
2022/01/17 13:13:26;;;;;;;47.88;8.15;;;8.90;99.90;;;;;;5065863;28;20048;-54
2022/01/17 13:16:04;;;;;;;52.33;9.13;;;9.00;99.90;;;;;;5065517;28;20497;-54
2022/01/17 13:18:31;;;;;;;57.75;9.43;;;8.60;99.90;;;;;;5063312;28;20037;-53
2022/01/17 13:21:00;;;;;;;63.10;11.27;;;9.40;99.90;;;;;;5063206;28;20040;-53
2022/01/17 13:23:45;;;;;;;48.55;8.05;;;9.00;99.90;;;;;;5063442;28;20032;-49
2022/01/17 13:26:17;;;;;;;58.70;8.40;;;8.90;99.90;;;;;;5063946;28;20067;-52
2022/01/17 13:28:52;;;;;;;50.47;8.95;;;8.80;99.90;;;;;;5062909;28;20045;-51
2022/01/17 13:31:20;;;;;;;50.38;7.78;;;10.70;99.90;;;;;;5065100;28;20041;-53